sensor_id;sensor_type;location;lat;lon;timestamp;pressure;altitude;pressure_sealevel;temperature;humidity
86336;BME280;77070;0.000;0.000;2024-03-29T00:00:42;95464.67;;;6.58;71.14
86336;BME280;77070;0.000;0.000;2024-03-29T00:03:29;95466.94;;;6.59;72.09
86336;BME280;77070;0.000;0.000;2024-03-29T00:05:56;95474.81;;;6.55;72.17
86336;BME280;77070;0.000;0.000;2024-03-29T00:08:23;95476.66;;;6.53;71.06
86336;BME280;77070;0.000;0.000;2024-03-29T00:10:50;95485.44;;;6.51;70.91
86336;BME280;77070;0.000;0.000;2024-03-29T00:13:17;95483.22;;;6.47;70.93
86336;BME280;77070;0.000;0.000;2024-03-29T00:15:46;95482.99;;;6.45;71.32
86336;BME280;77070;0.000;0.000;2024-03-29T00:18:13;95480.48;;;6.43;71.86
86336;BME280;77070;0.000;0.000;2024-03-29T00:20:40;95482.55;;;6.36;72.50
86336;BME280;77070;0.000;0.000;2024-03-29T00:23:07;95483.89;;;6.28;72.09
86336;BME280;77070;0.000;0.000;2024-03-29T00:25:34;95490.56;;;6.22;72.38
86336;BME280;77070;0.000;0.000;2024-03-29T00:28:01;95492.99;;;6.13;72.86
86336;BME280;77070;0.000;0.000;2024-03-29T00:30:30;95504.43;;;6.07;72.49
86336;BME280;77070;0.000;0.000;2024-03-29T00:32:57;95503.46;;;6.07;72.48
86336;BME280;77070;0.000;0.000;2024-03-29T00:35:24;95508.66;;;6.04;72.44
86336;BME280;77070;0.000;0.000;2024-03-29T00:37:51;95508.91;;;5.97;72.63
86336;BME280;77070;0.000;0.000;2024-03-29T00:40:18;95513.52;;;5.94;72.32
86336;BME280;77070;0.000;0.000;2024-03-29T00:42:45;95521.59;;;5.88;72.50
86336;BME280;77070;0.000;0.000;2024-03-29T00:45:12;95534.35;;;5.85;72.69
86336;BME280;77070;0.000;0.000;2024-03-29T00:47:59;95546.25;;;5.83;72.89
86336;BME280;77070;0.000;0.000;2024-03-29T00:50:26;95542.38;;;5.79;72.68
86336;BME280;77070;0.000;0.000;2024-03-29T00:52:53;95549.19;;;5.77;73.23
86336;BME280;77070;0.000;0.000;2024-03-29T00:55:19;95552.81;;;5.72;73.51
86336;BME280;77070;0.000;0.000;2024-03-29T00:57:46;95561.09;;;5.67;73.41
86336;BME280;77070;0.000;0.000;2024-03-29T01:00:13;95568.17;;;5.64;73.36
86336;BME280;77070;0.000;0.000;2024-03-29T01:02:41;95579.16;;;5.62;73.07
86336;BME280;77070;0.000;0.000;2024-03-29T01:05:08;95584.61;;;5.58;73.47
86336;BME280;77070;0.000;0.000;2024-03-29T01:07:35;95597.80;;;5.54;73.17
86336;BME280;77070;0.000;0.000;2024-03-29T01:10:05;95611.14;;;5.51;73.19
86336;BME280;77070;0.000;0.000;2024-03-29T01:12:32;95615.59;;;5.52;73.09
86336;BME280;77070;0.000;0.000;2024-03-29T01:14:59;95610.24;;;5.51;73.37
86336;BME280;77070;0.000;0.000;2024-03-29T01:17:26;95619.39;;;5.52;72.97
86336;BME280;77070;0.000;0.000;2024-03-29T01:19:53;95626.58;;;5.50;72.71
86336;BME280;77070;0.000;0.000;2024-03-29T01:22:20;95632.16;;;5.53;73.01
86336;BME280;77070;0.000;0.000;2024-03-29T01:24:47;95648.69;;;5.55;72.97
86336;BME280;77070;0.000;0.000;2024-03-29T01:27:15;95658.35;;;5.58;72.58
86336;BME280;77070;0.000;0.000;2024-03-29T01:29:43;95670.88;;;5.60;72.18
86336;BME280;77070;0.000;0.000;2024-03-29T01:32:10;95672.29;;;5.58;72.74
86336;BME280;77070;0.000;0.000;2024-03-29T01:34:37;95668.79;;;5.53;72.78
86336;BME280;77070;0.000;0.000;2024-03-29T01:37:07;95667.77;;;5.54;73.13
86336;BME280;77070;0.000;0.000;2024-03-29T01:39:34;95671.16;;;5.54;72.67
86336;BME280;77070;0.000;0.000;2024-03-29T01:42:01;95677.63;;;5.55;73.31
86336;BME280;77070;0.000;0.000;2024-03-29T01:44:29;95691.41;;;5.54;73.07
86336;BME280;77070;0.000;0.000;2024-03-29T01:46:57;95702.88;;;5.53;73.23
86336;BME280;77070;0.000;0.000;2024-03-29T01:49:24;95707.11;;;5.53;72.99
86336;BME280;77070;0.000;0.000;2024-03-29T01:51:52;95719.05;;;5.52;72.77
86336;BME280;77070;0.000;0.000;2024-03-29T01:54:20;95724.35;;;5.52;72.33
86336;BME280;77070;0.000;0.000;2024-03-29T01:56:47;95735.13;;;5.55;72.07
86336;BME280;77070;0.000;0.000;2024-03-29T01:59:16;95739.95;;;5.56;72.07
86336;BME280;77070;0.000;0.000;2024-03-29T02:01:45;95736.31;;;5.55;71.94
86336;BME280;77070;0.000;0.000;2024-03-29T02:04:13;95737.45;;;5.50;72.44
86336;BME280;77070;0.000;0.000;2024-03-29T02:06:40;95746.31;;;5.43;72.75
86336;BME280;77070;0.000;0.000;2024-03-29T02:09:06;95749.71;;;5.34;73.21
86336;BME280;77070;0.000;0.000;2024-03-29T02:11:34;95758.25;;;5.34;72.99
86336;BME280;77070;0.000;0.000;2024-03-29T02:14:03;95758.67;;;5.33;72.24
86336;BME280;77070;0.000;0.000;2024-03-29T02:16:32;95767.26;;;5.35;71.54
86336;BME280;77070;0.000;0.000;2024-03-29T02:18:59;95756.35;;;5.53;70.60
86336;BME280;77070;0.000;0.000;2024-03-29T02:21:28;95754.25;;;5.57;70.42
86336;BME280;77070;0.000;0.000;2024-03-29T02:24:08;95752.19;;;5.51;70.91
86336;BME280;77070;0.000;0.000;2024-03-29T02:26:36;95755.71;;;5.47;71.54
86336;BME280;77070;0.000;0.000;2024-03-29T02:29:08;95753.08;;;5.45;71.52
86336;BME280;77070;0.000;0.000;2024-03-29T02:31:39;95753.09;;;5.44;71.04
86336;BME280;77070;0.000;0.000;2024-03-29T02:34:07;95762.91;;;5.42;71.04
86336;BME280;77070;0.000;0.000;2024-03-29T02:36:36;95764.36;;;5.39;70.92
86336;BME280;77070;0.000;0.000;2024-03-29T02:39:04;95776.46;;;5.37;69.83
86336;BME280;77070;0.000;0.000;2024-03-29T02:41:31;95774.16;;;5.48;69.07
86336;BME280;77070;0.000;0.000;2024-03-29T02:43:58;95771.59;;;5.55;68.36
86336;BME280;77070;0.000;0.000;2024-03-29T02:46:25;95774.25;;;5.62;68.89
86336;BME280;77070;0.000;0.000;2024-03-29T02:48:52;95776.77;;;5.58;68.73
86336;BME280;77070;0.000;0.000;2024-03-29T02:51:19;95776.70;;;5.54;68.95
86336;BME280;77070;0.000;0.000;2024-03-29T02:53:46;95774.06;;;5.45;69.70
86336;BME280;77070;0.000;0.000;2024-03-29T02:56:13;95766.17;;;5.37;69.81
86336;BME280;77070;0.000;0.000;2024-03-29T02:58:42;95768.30;;;5.36;69.87
86336;BME280;77070;0.000;0.000;2024-03-29T03:01:09;95766.13;;;5.29;70.09
86336;BME280;77070;0.000;0.000;2024-03-29T03:03:36;95769.73;;;5.30;69.65
86336;BME280;77070;0.000;0.000;2024-03-29T03:06:04;95769.44;;;5.27;69.45
86336;BME280;77070;0.000;0.000;2024-03-29T03:08:32;95763.47;;;5.24;69.61
86336;BME280;77070;0.000;0.000;2024-03-29T03:11:17;95762.07;;;5.20;69.53
86336;BME280;77070;0.000;0.000;2024-03-29T03:13:44;95761.46;;;5.13;69.77
86336;BME280;77070;0.000;0.000;2024-03-29T03:16:11;95760.09;;;5.06;69.64
86336;BME280;77070;0.000;0.000;2024-03-29T03:18:38;95750.44;;;4.98;70.23
86336;BME280;77070;0.000;0.000;2024-03-29T03:21:05;95755.92;;;4.84;70.29
86336;BME280;77070;0.000;0.000;2024-03-29T03:23:32;95754.89;;;4.67;71.27
86336;BME280;77070;0.000;0.000;2024-03-29T03:26:01;95751.20;;;4.57;71.81
86336;BME280;77070;0.000;0.000;2024-03-29T03:28:30;95759.59;;;4.50;71.77
86336;BME280;77070;0.000;0.000;2024-03-29T03:30:58;95768.58;;;4.38;72.18
86336;BME280;77070;0.000;0.000;2024-03-29T03:33:25;95777.64;;;4.17;73.45
86336;BME280;77070;0.000;0.000;2024-03-29T03:35:52;95781.52;;;4.07;73.26
86336;BME280;77070;0.000;0.000;2024-03-29T03:38:19;95788.34;;;4.03;73.44
86336;BME280;77070;0.000;0.000;2024-03-29T03:40:46;95796.92;;;3.96;73.57
86336;BME280;77070;0.000;0.000;2024-03-29T03:43:13;95795.98;;;3.93;73.50
86336;BME280;77070;0.000;0.000;2024-03-29T03:45:40;95792.17;;;3.89;73.66
86336;BME280;77070;0.000;0.000;2024-03-29T03:48:09;95790.60;;;3.87;73.69
86336;BME280;77070;0.000;0.000;2024-03-29T03:50:37;95787.95;;;3.87;73.90
86336;BME280;77070;0.000;0.000;2024-03-29T03:53:04;95783.94;;;3.88;74.16
86336;BME280;77070;0.000;0.000;2024-03-29T03:55:35;95780.65;;;3.88;74.25
86336;BME280;77070;0.000;0.000;2024-03-29T03:58:08;95782.25;;;3.82;74.82
86336;BME280;77070;0.000;0.000;2024-03-29T04:00:35;95786.44;;;3.71;74.81
86336;BME280;77070;0.000;0.000;2024-03-29T04:03:02;95793.67;;;3.62;75.10
86336;BME280;77070;0.000;0.000;2024-03-29T04:05:30;95806.42;;;3.54;75.07
86336;BME280;77070;0.000;0.000;2024-03-29T04:07:58;95814.02;;;3.44;75.24
86336;BME280;77070;0.000;0.000;2024-03-29T04:10:26;95817.92;;;3.40;75.54
86336;BME280;77070;0.000;0.000;2024-03-29T04:12:53;95814.33;;;3.35;75.70
86336;BME280;77070;0.000;0.000;2024-03-29T04:15:20;95816.33;;;3.29;75.95
86336;BME280;77070;0.000;0.000;2024-03-29T04:17:47;95824.60;;;3.21;76.08
86336;BME280;77070;0.000;0.000;2024-03-29T04:20:16;95833.05;;;3.16;76.09
86336;BME280;77070;0.000;0.000;2024-03-29T04:22:43;95842.11;;;3.09;76.24
86336;BME280;77070;0.000;0.000;2024-03-29T04:25:12;95841.40;;;3.02;76.86
86336;BME280;77070;0.000;0.000;2024-03-29T04:27:39;95853.38;;;2.96;77.15
86336;BME280;77070;0.000;0.000;2024-03-29T04:30:06;95866.92;;;2.91;77.50
86336;BME280;77070;0.000;0.000;2024-03-29T04:32:34;95876.24;;;2.85;77.98
86336;BME280;77070;0.000;0.000;2024-03-29T04:35:01;95870.06;;;2.83;77.90
86336;BME280;77070;0.000;0.000;2024-03-29T04:37:29;95876.61;;;2.84;77.78
86336;BME280;77070;0.000;0.000;2024-03-29T04:39:56;95877.94;;;2.88;77.65
86336;BME280;77070;0.000;0.000;2024-03-29T04:42:23;95875.66;;;2.84;77.90
86336;BME280;77070;0.000;0.000;2024-03-29T04:44:50;95874.73;;;2.78;77.78
86336;BME280;77070;0.000;0.000;2024-03-29T04:47:18;95875.56;;;2.75;78.06
86336;BME280;77070;0.000;0.000;2024-03-29T04:49:44;95878.16;;;2.76;78.30
86336;BME280;77070;0.000;0.000;2024-03-29T04:52:11;95886.75;;;2.86;78.29
86336;BME280;77070;0.000;0.000;2024-03-29T04:54:40;95889.89;;;2.94;77.95
86336;BME280;77070;0.000;0.000;2024-03-29T04:57:06;95887.89;;;2.96;77.71
86336;BME280;77070;0.000;0.000;2024-03-29T04:59:33;95885.62;;;2.94;77.55
86336;BME280;77070;0.000;0.000;2024-03-29T05:02:01;95887.73;;;2.95;77.32
86336;BME280;77070;0.000;0.000;2024-03-29T05:04:28;95886.54;;;3.01;77.34
86336;BME280;77070;0.000;0.000;2024-03-29T05:06:57;95875.27;;;3.08;77.49
86336;BME280;77070;0.000;0.000;2024-03-29T05:09:24;95874.75;;;3.17;77.44
86336;BME280;77070;0.000;0.000;2024-03-29T05:11:52;95864.80;;;3.26;77.44
86336;BME280;77070;0.000;0.000;2024-03-29T05:14:21;95856.05;;;3.42;77.49
86336;BME280;77070;0.000;0.000;2024-03-29T05:16:49;95869.46;;;3.58;77.07
86336;BME280;77070;0.000;0.000;2024-03-29T05:19:16;95873.69;;;3.69;76.83
86336;BME280;77070;0.000;0.000;2024-03-29T05:21:43;95879.61;;;3.78;76.61
86336;BME280;77070;0.000;0.000;2024-03-29T05:24:10;95899.34;;;3.84;76.28
86336;BME280;77070;0.000;0.000;2024-03-29T05:26:37;95909.27;;;3.91;76.18
86336;BME280;77070;0.000;0.000;2024-03-29T05:29:04;95909.70;;;3.96;75.92
86336;BME280;77070;0.000;0.000;2024-03-29T05:31:32;95900.83;;;3.99;75.91
86336;BME280;77070;0.000;0.000;2024-03-29T05:33:59;95897.70;;;4.06;75.95
86336;BME280;77070;0.000;0.000;2024-03-29T05:36:30;95882.67;;;4.12;76.09
86336;BME280;77070;0.000;0.000;2024-03-29T05:38:57;95878.34;;;4.17;76.21
86336;BME280;77070;0.000;0.000;2024-03-29T05:41:24;95879.13;;;4.25;75.90
86336;BME280;77070;0.000;0.000;2024-03-29T05:43:51;95884.72;;;4.31;75.72
86336;BME280;77070;0.000;0.000;2024-03-29T05:46:18;95887.62;;;4.35;75.52
86336;BME280;77070;0.000;0.000;2024-03-29T05:48:45;95890.04;;;4.43;75.34
86336;BME280;77070;0.000;0.000;2024-03-29T05:51:12;95889.07;;;4.53;75.10
86336;BME280;77070;0.000;0.000;2024-03-29T05:53:39;95887.76;;;4.67;74.77
86336;BME280;77070;0.000;0.000;2024-03-29T05:56:06;95891.44;;;4.79;74.18
86336;BME280;77070;0.000;0.000;2024-03-29T05:58:34;95886.25;;;4.92;73.85
86336;BME280;77070;0.000;0.000;2024-03-29T06:01:01;95880.48;;;5.01;73.74
86336;BME280;77070;0.000;0.000;2024-03-29T06:03:30;95882.95;;;5.09;73.39
86336;BME280;77070;0.000;0.000;2024-03-29T06:05:58;95881.27;;;5.17;73.04
86336;BME280;77070;0.000;0.000;2024-03-29T06:08:25;95879.52;;;5.22;72.25
86336;BME280;77070;0.000;0.000;2024-03-29T06:10:53;95885.40;;;5.28;72.34
86336;BME280;77070;0.000;0.000;2024-03-29T06:13:21;95887.81;;;5.33;72.05
86336;BME280;77070;0.000;0.000;2024-03-29T06:16:08;95899.67;;;5.43;72.09
86336;BME280;77070;0.000;0.000;2024-03-29T06:18:54;95893.45;;;5.56;72.40
86336;BME280;77070;0.000;0.000;2024-03-29T06:21:21;95890.20;;;5.68;71.51
86336;BME280;77070;0.000;0.000;2024-03-29T06:23:48;95895.25;;;5.75;71.18
86336;BME280;77070;0.000;0.000;2024-03-29T06:26:15;95895.58;;;5.81;70.76
86336;BME280;77070;0.000;0.000;2024-03-29T06:28:42;95905.51;;;5.87;70.65
86336;BME280;77070;0.000;0.000;2024-03-29T06:31:09;95915.88;;;5.91;70.33
86336;BME280;77070;0.000;0.000;2024-03-29T06:33:38;95910.23;;;5.98;70.15
86336;BME280;77070;0.000;0.000;2024-03-29T06:36:06;95898.86;;;6.06;70.08
86336;BME280;77070;0.000;0.000;2024-03-29T06:38:34;95912.55;;;6.19;70.02
86336;BME280;77070;0.000;0.000;2024-03-29T06:41:01;95907.70;;;6.34;69.61
86336;BME280;77070;0.000;0.000;2024-03-29T06:43:28;95899.48;;;6.45;69.24
86336;BME280;77070;0.000;0.000;2024-03-29T06:45:55;95897.70;;;6.55;68.86
86336;BME280;77070;0.000;0.000;2024-03-29T06:48:23;95901.96;;;6.57;68.74
86336;BME280;77070;0.000;0.000;2024-03-29T06:50:52;95891.48;;;6.56;68.76
86336;BME280;77070;0.000;0.000;2024-03-29T06:53:19;95894.78;;;6.53;68.63
86336;BME280;77070;0.000;0.000;2024-03-29T06:55:48;95901.02;;;6.57;68.39
86336;BME280;77070;0.000;0.000;2024-03-29T06:58:16;95901.51;;;6.62;68.44
86336;BME280;77070;0.000;0.000;2024-03-29T07:00:46;95901.61;;;6.67;68.05
86336;BME280;77070;0.000;0.000;2024-03-29T07:03:13;95896.71;;;6.77;68.09
86336;BME280;77070;0.000;0.000;2024-03-29T07:05:41;95891.96;;;6.88;67.43
86336;BME280;77070;0.000;0.000;2024-03-29T07:08:08;95881.40;;;6.98;67.17
86336;BME280;77070;0.000;0.000;2024-03-29T07:10:35;95880.83;;;7.06;66.63
86336;BME280;77070;0.000;0.000;2024-03-29T07:13:02;95890.90;;;7.12;66.76
86336;BME280;77070;0.000;0.000;2024-03-29T07:15:29;95890.09;;;7.21;65.76
86336;BME280;77070;0.000;0.000;2024-03-29T07:18:16;95892.26;;;7.27;66.24
86336;BME280;77070;0.000;0.000;2024-03-29T07:20:43;95904.66;;;7.37;65.17
86336;BME280;77070;0.000;0.000;2024-03-29T07:23:11;95899.88;;;7.47;65.07
86336;BME280;77070;0.000;0.000;2024-03-29T07:25:38;95897.94;;;7.55;64.95
86336;BME280;77070;0.000;0.000;2024-03-29T07:28:08;95893.70;;;7.66;64.47
86336;BME280;77070;0.000;0.000;2024-03-29T07:30:36;95895.77;;;7.80;64.49
86336;BME280;77070;0.000;0.000;2024-03-29T07:33:05;95902.05;;;7.91;63.92
86336;BME280;77070;0.000;0.000;2024-03-29T07:35:32;95910.35;;;8.05;63.42
86336;BME280;77070;0.000;0.000;2024-03-29T07:37:59;95907.95;;;8.19;61.83
86336;BME280;77070;0.000;0.000;2024-03-29T07:40:26;95912.46;;;8.27;62.10
86336;BME280;77070;0.000;0.000;2024-03-29T07:42:53;95915.07;;;8.32;61.53
86336;BME280;77070;0.000;0.000;2024-03-29T07:45:20;95918.93;;;8.40;62.00
86336;BME280;77070;0.000;0.000;2024-03-29T07:47:48;95917.67;;;8.46;61.79
86336;BME280;77070;0.000;0.000;2024-03-29T07:50:19;95922.64;;;8.51;61.71
86336;BME280;77070;0.000;0.000;2024-03-29T07:52:46;95914.42;;;8.61;61.77
86336;BME280;77070;0.000;0.000;2024-03-29T07:55:13;95912.89;;;8.66;61.00
86336;BME280;77070;0.000;0.000;2024-03-29T07:57:40;95922.14;;;8.70;61.32
86336;BME280;77070;0.000;0.000;2024-03-29T08:00:08;95921.54;;;8.77;61.72
86336;BME280;77070;0.000;0.000;2024-03-29T08:02:37;95920.60;;;8.88;60.31
86336;BME280;77070;0.000;0.000;2024-03-29T08:05:05;95918.20;;;8.93;61.44
86336;BME280;77070;0.000;0.000;2024-03-29T08:07:33;95921.80;;;9.01;60.84
86336;BME280;77070;0.000;0.000;2024-03-29T08:10:00;95925.48;;;9.09;61.04
86336;BME280;77070;0.000;0.000;2024-03-29T08:12:30;95925.83;;;9.19;59.87
86336;BME280;77070;0.000;0.000;2024-03-29T08:14:57;95919.04;;;9.33;57.60
86336;BME280;77070;0.000;0.000;2024-03-29T08:17:24;95925.39;;;9.43;60.03
86336;BME280;77070;0.000;0.000;2024-03-29T08:19:52;95928.45;;;9.55;60.04
86336;BME280;77070;0.000;0.000;2024-03-29T08:22:22;95934.20;;;9.68;59.09
86336;BME280;77070;0.000;0.000;2024-03-29T08:24:49;95939.09;;;9.74;58.47
86336;BME280;77070;0.000;0.000;2024-03-29T08:27:16;95939.98;;;9.79;56.95
86336;BME280;77070;0.000;0.000;2024-03-29T08:29:43;95932.61;;;9.94;56.56
86336;BME280;77070;0.000;0.000;2024-03-29T08:32:10;95930.15;;;10.01;55.69
86336;BME280;77070;0.000;0.000;2024-03-29T08:34:37;95929.16;;;10.05;55.00
86336;BME280;77070;0.000;0.000;2024-03-29T08:37:08;95933.18;;;10.11;54.12
86336;BME280;77070;0.000;0.000;2024-03-29T08:39:35;95935.39;;;10.17;54.69
86336;BME280;77070;0.000;0.000;2024-03-29T08:42:04;95925.14;;;10.20;54.42
86336;BME280;77070;0.000;0.000;2024-03-29T08:44:32;95920.04;;;10.26;54.73
86336;BME280;77070;0.000;0.000;2024-03-29T08:47:00;95908.42;;;10.32;54.91
86336;BME280;77070;0.000;0.000;2024-03-29T08:49:30;95908.20;;;10.43;54.03
86336;BME280;77070;0.000;0.000;2024-03-29T08:51:57;95901.21;;;10.51;52.68
86336;BME280;77070;0.000;0.000;2024-03-29T08:54:31;95889.98;;;10.60;50.15
86336;BME280;77070;0.000;0.000;2024-03-29T08:56:59;95871.15;;;10.71;49.24
86336;BME280;77070;0.000;0.000;2024-03-29T08:59:28;95886.23;;;10.75;48.64
86336;BME280;77070;0.000;0.000;2024-03-29T09:02:03;95892.04;;;10.76;48.55
86336;BME280;77070;0.000;0.000;2024-03-29T09:04:31;95894.35;;;10.81;50.64
86336;BME280;77070;0.000;0.000;2024-03-29T09:07:00;95893.90;;;10.88;49.68
86336;BME280;77070;0.000;0.000;2024-03-29T09:09:31;95889.34;;;10.96;49.97
86336;BME280;77070;0.000;0.000;2024-03-29T09:11:59;95886.24;;;11.10;50.90
86336;BME280;77070;0.000;0.000;2024-03-29T09:14:26;95892.52;;;11.20;50.10
86336;BME280;77070;0.000;0.000;2024-03-29T09:16:53;95879.98;;;11.35;50.77
86336;BME280;77070;0.000;0.000;2024-03-29T09:19:20;95888.98;;;11.46;52.68
86336;BME280;77070;0.000;0.000;2024-03-29T09:21:47;95891.41;;;11.54;50.67
86336;BME280;77070;0.000;0.000;2024-03-29T09:24:14;95887.70;;;11.58;49.89
86336;BME280;77070;0.000;0.000;2024-03-29T09:26:43;95895.42;;;11.60;49.92
86336;BME280;77070;0.000;0.000;2024-03-29T09:29:11;95887.09;;;11.66;49.43
86336;BME280;77070;0.000;0.000;2024-03-29T09:31:40;95882.60;;;11.82;49.15
86336;BME280;77070;0.000;0.000;2024-03-29T09:34:07;95868.97;;;11.90;48.15
86336;BME280;77070;0.000;0.000;2024-03-29T09:36:36;95885.36;;;11.94;47.85
86336;BME280;77070;0.000;0.000;2024-03-29T09:39:03;95883.18;;;11.97;46.72
86336;BME280;77070;0.000;0.000;2024-03-29T09:41:31;95885.27;;;12.01;46.63
86336;BME280;77070;0.000;0.000;2024-03-29T09:44:02;95874.70;;;12.03;44.87
86336;BME280;77070;0.000;0.000;2024-03-29T09:46:31;95870.39;;;12.04;46.25
86336;BME280;77070;0.000;0.000;2024-03-29T09:49:01;95870.08;;;12.15;45.85
86336;BME280;77070;0.000;0.000;2024-03-29T09:51:30;95872.17;;;12.28;44.61
86336;BME280;77070;0.000;0.000;2024-03-29T09:53:59;95867.04;;;12.36;44.06
86336;BME280;77070;0.000;0.000;2024-03-29T09:56:27;95865.52;;;12.48;43.42
86336;BME280;77070;0.000;0.000;2024-03-29T09:58:54;95860.13;;;12.58;43.22
86336;BME280;77070;0.000;0.000;2024-03-29T10:01:21;95854.67;;;12.69;43.85
86336;BME280;77070;0.000;0.000;2024-03-29T10:03:49;95851.23;;;12.78;43.01
86336;BME280;77070;0.000;0.000;2024-03-29T10:06:20;95848.20;;;12.87;42.53
86336;BME280;77070;0.000;0.000;2024-03-29T10:08:48;95834.54;;;12.92;43.18
86336;BME280;77070;0.000;0.000;2024-03-29T10:11:15;95840.45;;;13.07;42.02
86336;BME280;77070;0.000;0.000;2024-03-29T10:13:46;95843.38;;;13.12;43.27
86336;BME280;77070;0.000;0.000;2024-03-29T10:16:13;95856.40;;;13.18;39.86
86336;BME280;77070;0.000;0.000;2024-03-29T10:18:47;95847.98;;;13.18;40.13
86336;BME280;77070;0.000;0.000;2024-03-29T10:21:15;95838.12;;;13.20;41.04
86336;BME280;77070;0.000;0.000;2024-03-29T10:23:43;95825.23;;;13.23;40.91
86336;BME280;77070;0.000;0.000;2024-03-29T10:26:14;95816.42;;;13.32;42.28
86336;BME280;77070;0.000;0.000;2024-03-29T10:28:47;95817.07;;;13.52;41.38
86336;BME280;77070;0.000;0.000;2024-03-29T10:31:17;95805.75;;;13.61;41.71
86336;BME280;77070;0.000;0.000;2024-03-29T10:33:44;95798.39;;;13.70;39.48
86336;BME280;77070;0.000;0.000;2024-03-29T10:36:11;95800.47;;;13.77;41.96
86336;BME280;77070;0.000;0.000;2024-03-29T10:38:40;95788.77;;;13.85;41.83
86336;BME280;77070;0.000;0.000;2024-03-29T10:41:07;95788.83;;;13.95;40.96
86336;BME280;77070;0.000;0.000;2024-03-29T10:43:34;95793.41;;;13.97;40.54
86336;BME280;77070;0.000;0.000;2024-03-29T10:46:01;95781.31;;;14.02;41.71
86336;BME280;77070;0.000;0.000;2024-03-29T10:48:30;95790.08;;;14.09;40.77
86336;BME280;77070;0.000;0.000;2024-03-29T10:50:58;95781.99;;;14.15;40.84
86336;BME280;77070;0.000;0.000;2024-03-29T10:53:27;95772.31;;;14.20;41.25
86336;BME280;77070;0.000;0.000;2024-03-29T10:55:54;95763.92;;;14.28;40.48
86336;BME280;77070;0.000;0.000;2024-03-29T10:58:25;95759.27;;;14.36;40.71
86336;BME280;77070;0.000;0.000;2024-03-29T11:00:57;95753.52;;;14.51;41.42
86336;BME280;77070;0.000;0.000;2024-03-29T11:03:37;95753.78;;;14.65;40.57
86336;BME280;77070;0.000;0.000;2024-03-29T11:06:06;95751.20;;;14.76;40.10
86336;BME280;77070;0.000;0.000;2024-03-29T11:08:35;95747.54;;;14.85;40.17
86336;BME280;77070;0.000;0.000;2024-03-29T11:11:07;95745.16;;;14.98;40.22
86336;BME280;77070;0.000;0.000;2024-03-29T11:13:55;95733.03;;;14.98;39.22
86336;BME280;77070;0.000;0.000;2024-03-29T11:16:23;95733.94;;;15.11;41.57
86336;BME280;77070;0.000;0.000;2024-03-29T11:18:51;95728.80;;;15.27;40.53
86336;BME280;77070;0.000;0.000;2024-03-29T11:21:19;95725.29;;;15.34;38.94
86336;BME280;77070;0.000;0.000;2024-03-29T11:23:51;95719.62;;;15.37;39.36
86336;BME280;77070;0.000;0.000;2024-03-29T11:26:19;95719.19;;;15.38;38.04
86336;BME280;77070;0.000;0.000;2024-03-29T11:28:51;95716.98;;;15.47;38.49
86336;BME280;77070;0.000;0.000;2024-03-29T11:31:22;95719.30;;;15.64;38.72
86336;BME280;77070;0.000;0.000;2024-03-29T11:33:50;95720.32;;;15.73;38.87
86336;BME280;77070;0.000;0.000;2024-03-29T11:36:22;95716.91;;;15.67;37.74
86336;BME280;77070;0.000;0.000;2024-03-29T11:38:56;95714.05;;;15.61;38.45
86336;BME280;77070;0.000;0.000;2024-03-29T11:41:27;95706.95;;;15.63;38.61
86336;BME280;77070;0.000;0.000;2024-03-29T11:43:56;95711.23;;;15.65;38.58
86336;BME280;77070;0.000;0.000;2024-03-29T11:46:24;95714.36;;;15.61;38.21
86336;BME280;77070;0.000;0.000;2024-03-29T11:48:52;95708.42;;;15.61;39.00
86336;BME280;77070;0.000;0.000;2024-03-29T11:51:21;95712.70;;;15.70;39.62
86336;BME280;77070;0.000;0.000;2024-03-29T11:53:51;95709.93;;;15.79;39.15
86336;BME280;77070;0.000;0.000;2024-03-29T11:56:19;95710.84;;;15.95;40.11
86336;BME280;77070;0.000;0.000;2024-03-29T11:58:47;95708.07;;;16.11;39.22
86336;BME280;77070;0.000;0.000;2024-03-29T12:01:15;95712.20;;;16.26;39.12
86336;BME280;77070;0.000;0.000;2024-03-29T12:03:43;95721.00;;;16.35;39.72
86336;BME280;77070;0.000;0.000;2024-03-29T12:06:12;95721.23;;;16.46;39.25
86336;BME280;77070;0.000;0.000;2024-03-29T12:08:40;95712.77;;;16.49;39.11
86336;BME280;77070;0.000;0.000;2024-03-29T12:11:09;95722.79;;;16.62;39.19
86336;BME280;77070;0.000;0.000;2024-03-29T12:13:37;95720.35;;;16.76;38.35
86336;BME280;77070;0.000;0.000;2024-03-29T12:16:07;95716.20;;;16.93;38.00
86336;BME280;77070;0.000;0.000;2024-03-29T12:18:34;95706.96;;;16.97;37.74
86336;BME280;77070;0.000;0.000;2024-03-29T12:21:03;95709.39;;;17.13;37.51
86336;BME280;77070;0.000;0.000;2024-03-29T12:23:30;95708.23;;;17.17;36.76
86336;BME280;77070;0.000;0.000;2024-03-29T12:25:58;95697.84;;;17.37;37.40
86336;BME280;77070;0.000;0.000;2024-03-29T12:28:25;95706.88;;;17.57;36.99
86336;BME280;77070;0.000;0.000;2024-03-29T12:30:53;95705.85;;;17.60;36.19
86336;BME280;77070;0.000;0.000;2024-03-29T12:33:22;95704.81;;;17.35;36.36
86336;BME280;77070;0.000;0.000;2024-03-29T12:35:52;95692.09;;;17.39;36.89
86336;BME280;77070;0.000;0.000;2024-03-29T12:38:22;95692.45;;;17.62;37.15
86336;BME280;77070;0.000;0.000;2024-03-29T12:40:50;95684.68;;;17.79;36.42
86336;BME280;77070;0.000;0.000;2024-03-29T12:43:22;95681.70;;;17.98;37.38
86336;BME280;77070;0.000;0.000;2024-03-29T12:45:50;95672.52;;;18.25;36.95
86336;BME280;77070;0.000;0.000;2024-03-29T12:48:19;95673.12;;;18.34;36.92
86336;BME280;77070;0.000;0.000;2024-03-29T12:50:47;95672.19;;;18.39;36.61
86336;BME280;77070;0.000;0.000;2024-03-29T12:53:16;95675.33;;;18.32;37.20
86336;BME280;77070;0.000;0.000;2024-03-29T12:55:45;95675.31;;;18.45;36.51
86336;BME280;77070;0.000;0.000;2024-03-29T12:58:13;95678.98;;;18.57;36.83
86336;BME280;77070;0.000;0.000;2024-03-29T13:00:40;95679.02;;;19.02;35.94
86336;BME280;77070;0.000;0.000;2024-03-29T13:03:08;95686.57;;;19.23;35.61
86336;BME280;77070;0.000;0.000;2024-03-29T13:05:36;95683.29;;;19.66;34.42
86336;BME280;77070;0.000;0.000;2024-03-29T13:08:11;95682.98;;;19.86;33.97
86336;BME280;77070;0.000;0.000;2024-03-29T13:10:39;95688.52;;;19.69;34.25
86336;BME280;77070;0.000;0.000;2024-03-29T13:13:08;95692.02;;;19.59;34.75
86336;BME280;77070;0.000;0.000;2024-03-29T13:15:37;95685.67;;;19.38;35.00
86336;BME280;77070;0.000;0.000;2024-03-29T13:18:06;95698.01;;;19.16;35.03
86336;BME280;77070;0.000;0.000;2024-03-29T13:20:36;95685.17;;;18.82;35.88
86336;BME280;77070;0.000;0.000;2024-03-29T13:23:07;95689.81;;;18.54;36.54